createdAt,value
2023-01-11T00:00:20.916Z,12.73
2023-01-11T00:02:48.259Z,4.85
2023-01-11T00:05:15.381Z,9.27
2023-01-11T00:07:42.284Z,5.43
2023-01-11T00:10:09.751Z,8.10
2023-01-11T00:12:36.708Z,5.85
2023-01-11T00:15:03.824Z,5.78
2023-01-11T00:17:30.806Z,4.18
2023-01-11T00:19:57.629Z,9.98
2023-01-11T00:22:24.603Z,7.68
2023-01-11T00:24:51.450Z,6.78
2023-01-11T00:27:18.610Z,7.85
2023-01-11T00:29:45.485Z,6.78
2023-01-11T00:32:12.648Z,4.68
2023-01-11T00:34:39.445Z,4.60
2023-01-11T00:37:06.416Z,3.05
2023-01-11T00:39:33.289Z,5.85
2023-01-11T00:42:18.703Z,4.88
2023-01-11T00:45:04.109Z,3.28
2023-01-11T00:47:49.524Z,6.88
2023-01-11T00:50:16.640Z,5.38
2023-01-11T00:52:43.524Z,4.97
2023-01-11T00:55:10.413Z,5.25
2023-01-11T00:57:37.379Z,5.15
2023-01-11T01:00:05.959Z,2.75
2023-01-11T01:02:33.891Z,5.15
2023-01-11T01:05:00.986Z,4.20
2023-01-11T01:07:27.850Z,5.18
2023-01-11T01:09:54.726Z,3.65
2023-01-11T01:12:41.817Z,6.88
2023-01-11T01:15:09.271Z,3.17
2023-01-11T01:17:36.081Z,3.10
2023-01-11T01:20:03.436Z,5.15
2023-01-11T01:22:30.229Z,4.80
2023-01-11T01:24:57.114Z,4.43
2023-01-11T01:27:24.020Z,4.07
2023-01-11T01:29:50.900Z,4.25
2023-01-11T01:32:17.896Z,5.97
2023-01-11T01:34:45.020Z,3.20
2023-01-11T01:37:12.276Z,4.45
2023-01-11T01:39:39.242Z,5.30
2023-01-11T01:42:07.284Z,5.28
2023-01-11T01:44:52.925Z,5.43
2023-01-11T01:47:32.781Z,3.83
2023-01-11T01:50:03.598Z,3.85
2023-01-11T01:52:33.484Z,4.32
2023-01-11T01:55:05.024Z,4.90
2023-01-11T01:57:35.611Z,7.72
2023-01-11T02:00:06.576Z,4.75
2023-01-11T02:02:37.060Z,8.80
2023-01-11T02:05:05.718Z,5.97
2023-01-11T02:07:35.274Z,8.13
2023-01-11T02:10:05.625Z,8.63
2023-01-11T02:12:38.251Z,5.35
2023-01-11T02:15:05.889Z,8.02
2023-01-11T02:17:32.865Z,7.25
2023-01-11T02:20:26.951Z,8.07
2023-01-11T02:22:53.824Z,7.88
2023-01-11T02:25:48.758Z,9.18
2023-01-11T02:28:58.041Z,4.15
2023-01-11T02:32:06.409Z,3.30
2023-01-11T02:35:02.011Z,4.35
2023-01-11T02:37:53.480Z,7.32
2023-01-11T02:40:49.620Z,6.22
2023-01-11T02:43:50.519Z,6.07
2023-01-11T02:46:29.699Z,12.00
2023-01-11T02:49:14.994Z,14.27
2023-01-11T02:51:54.318Z,10.35
2023-01-11T02:54:24.218Z,18.77
2023-01-11T02:56:56.450Z,19.45
2023-01-11T02:59:28.091Z,22.88
2023-01-11T03:01:55.776Z,20.67
2023-01-11T03:04:28.109Z,33.00
2023-01-11T03:07:02.887Z,27.75
2023-01-11T03:09:51.768Z,35.28
2023-01-11T03:12:46.243Z,35.95
2023-01-11T03:15:22.027Z,35.80
2023-01-11T03:18:21.259Z,45.45
2023-01-11T03:20:54.966Z,42.78
2023-01-11T03:23:48.793Z,40.33
2023-01-11T03:26:58.145Z,40.72
2023-01-11T03:29:33.926Z,51.90
2023-01-11T03:32:25.891Z,46.92
2023-01-11T03:35:13.153Z,65.30
2023-01-11T03:37:51.301Z,64.30
2023-01-11T03:40:30.504Z,52.22
2023-01-11T03:43:12.444Z,54.88
2023-01-11T03:45:51.121Z,54.17
2023-01-11T03:48:38.600Z,56.42
2023-01-11T03:51:11.396Z,55.83
2023-01-11T03:53:40.008Z,62.90
2023-01-11T03:56:11.664Z,57.17
2023-01-11T03:58:38.743Z,65.68
2023-01-11T04:01:06.090Z,60.65
2023-01-11T04:03:32.998Z,59.88
2023-01-11T04:06:01.898Z,71.97
2023-01-11T04:08:28.950Z,56.30
2023-01-11T04:10:55.845Z,57.05
2023-01-11T04:13:22.753Z,60.25
2023-01-11T04:15:49.848Z,65.10
2023-01-11T04:18:16.784Z,63.85
2023-01-11T04:20:46.237Z,71.35
2023-01-11T04:23:13.140Z,56.50
2023-01-11T04:25:39.949Z,52.90
2023-01-11T04:28:06.942Z,62.58
2023-01-11T04:30:34.100Z,65.18
2023-01-11T04:33:00.970Z,58.17
2023-01-11T04:35:28.201Z,49.72
2023-01-11T04:37:56.406Z,51.22
2023-01-11T04:40:24.478Z,57.60
2023-01-11T04:42:51.401Z,47.83
2023-01-11T04:45:18.392Z,46.65
2023-01-11T04:47:45.328Z,58.53
2023-01-11T04:50:12.794Z,44.20
2023-01-11T04:52:41.901Z,39.67
2023-01-11T04:55:09.545Z,46.25
2023-01-11T04:57:36.786Z,36.45
2023-01-11T05:00:10.812Z,44.55
2023-01-11T05:02:38.683Z,30.83
2023-01-11T05:05:07.067Z,37.53
2023-01-11T05:07:34.259Z,28.58
2023-01-11T05:10:01.232Z,33.25
2023-01-11T05:12:28.203Z,27.15
2023-01-11T05:14:55.369Z,34.45
2023-01-11T05:17:22.269Z,27.90
2023-01-11T05:19:49.100Z,33.72
2023-01-11T05:22:16.033Z,28.63
2023-01-11T05:24:42.897Z,39.38
2023-01-11T05:27:09.842Z,37.60
2023-01-11T05:29:36.698Z,37.83
2023-01-11T05:32:03.714Z,32.83
2023-01-11T05:34:30.541Z,36.00
2023-01-11T05:36:57.428Z,34.13
2023-01-11T05:39:24.347Z,26.55
2023-01-11T05:41:51.286Z,31.73
2023-01-11T05:44:37.267Z,30.50
2023-01-11T05:47:04.433Z,28.20
2023-01-11T05:49:31.383Z,28.90
2023-01-11T05:51:58.447Z,30.33
2023-01-11T05:54:25.357Z,39.47
2023-01-11T05:56:52.265Z,33.05
2023-01-11T05:59:19.450Z,35.97
2023-01-11T06:01:46.566Z,31.88
2023-01-11T06:04:14.470Z,30.98
2023-01-11T06:06:41.421Z,30.00
2023-01-11T06:09:08.283Z,30.98
2023-01-11T06:11:35.296Z,30.85
2023-01-11T06:14:02.810Z,32.13
2023-01-11T06:16:29.804Z,24.55
2023-01-11T06:18:56.854Z,26.77
2023-01-11T06:21:25.402Z,24.88
2023-01-11T06:23:52.362Z,25.65
2023-01-11T06:26:25.939Z,35.33
2023-01-11T06:28:52.937Z,31.38
2023-01-11T06:31:19.986Z,25.67
2023-01-11T06:33:47.847Z,24.38
2023-01-11T06:36:15.548Z,26.48
2023-01-11T06:38:43.451Z,21.90
2023-01-11T06:41:12.486Z,35.13
2023-01-11T06:43:41.797Z,24.92
2023-01-11T06:46:13.338Z,30.70
2023-01-11T06:48:40.427Z,30.73
2023-01-11T06:51:07.466Z,27.65
2023-01-11T06:53:34.556Z,32.38
2023-01-11T06:56:01.690Z,25.65
2023-01-11T06:58:28.945Z,21.80
2023-01-11T07:00:57.323Z,28.15
2023-01-11T07:03:26.097Z,21.00
2023-01-11T07:05:56.638Z,23.90
2023-01-11T07:08:27.022Z,23.83
2023-01-11T07:10:54.596Z,23.80
2023-01-11T07:13:22.678Z,30.98
2023-01-11T07:15:51.771Z,31.35
2023-01-11T07:18:19.736Z,32.47
2023-01-11T07:20:46.976Z,35.90
2023-01-11T07:23:14.004Z,28.08
2023-01-11T07:25:41.220Z,26.00
2023-01-11T07:28:09.386Z,29.38
2023-01-11T07:30:56.165Z,30.15
2023-01-11T07:33:25.532Z,23.63
2023-01-11T07:35:52.686Z,18.88
2023-01-11T07:38:19.971Z,23.38
2023-01-11T07:40:46.997Z,23.52
2023-01-11T07:43:15.191Z,34.13
2023-01-11T07:45:46.670Z,32.72
2023-01-11T07:48:14.844Z,26.38
2023-01-11T07:50:44.492Z,28.27
2023-01-11T07:53:12.268Z,28.25
2023-01-11T07:55:39.890Z,35.60
2023-01-11T07:58:08.521Z,29.40
2023-01-11T08:00:35.459Z,29.67
2023-01-11T08:03:02.951Z,31.40
2023-01-11T08:05:30.146Z,27.30
2023-01-11T08:07:57.096Z,25.02
2023-01-11T08:10:24.443Z,27.38
2023-01-11T08:13:17.681Z,31.63
2023-01-11T08:15:45.026Z,32.28
2023-01-11T08:18:12.709Z,27.15
2023-01-11T08:20:40.524Z,30.52
2023-01-11T08:23:10.331Z,26.95
2023-01-11T08:25:38.189Z,24.25
2023-01-11T08:28:06.792Z,36.97
2023-01-11T08:30:34.259Z,24.55
2023-01-11T08:33:02.276Z,23.80
2023-01-11T08:35:30.121Z,24.92
2023-01-11T08:37:57.060Z,25.75
2023-01-11T08:40:25.557Z,29.52
2023-01-11T08:42:57.053Z,27.05
2023-01-11T08:45:24.356Z,32.58
2023-01-11T08:47:52.143Z,38.22
2023-01-11T08:50:19.515Z,30.45
2023-01-11T08:52:47.449Z,28.88
2023-01-11T08:55:14.464Z,35.92
2023-01-11T08:57:41.301Z,32.72
2023-01-11T09:00:09.226Z,29.88
2023-01-11T09:02:36.181Z,28.70
2023-01-11T09:05:03.330Z,25.42
2023-01-11T09:07:30.201Z,27.48
2023-01-11T09:09:57.156Z,31.95
2023-01-11T09:12:24.178Z,34.50
2023-01-11T09:14:51.177Z,30.50
2023-01-11T09:17:18.007Z,36.05
2023-01-11T09:19:44.932Z,28.85
2023-01-11T09:22:11.807Z,33.70
2023-01-11T09:24:38.731Z,26.48
2023-01-11T09:27:05.766Z,26.20
2023-01-11T09:29:34.382Z,32.50
2023-01-11T09:32:02.480Z,24.65
2023-01-11T09:34:29.422Z,33.80
2023-01-11T09:36:59.370Z,40.55
2023-01-11T09:39:28.336Z,30.95
2023-01-11T09:42:02.099Z,32.67
2023-01-11T09:44:30.805Z,31.45
2023-01-11T09:47:14.086Z,32.83
2023-01-11T09:49:47.221Z,35.20
2023-01-11T09:52:29.938Z,29.35
2023-01-11T09:54:58.696Z,31.73
2023-01-11T09:58:07.767Z,30.88
2023-01-11T10:00:51.879Z,29.20
2023-01-11T10:04:03.430Z,40.60
2023-01-11T10:06:42.301Z,34.83
2023-01-11T10:18:32.239Z,36.25
2023-01-11T10:22:00.499Z,33.65
2023-01-11T10:24:42.504Z,27.02
2023-01-11T10:27:37.863Z,25.65
2023-01-11T10:30:56.356Z,34.65
2023-01-11T10:33:45.402Z,28.42
2023-01-11T10:36:43.178Z,32.90
2023-01-11T10:39:51.304Z,32.05
2023-01-11T10:42:25.069Z,43.55
2023-01-11T10:45:00.380Z,34.88
2023-01-11T10:47:45.568Z,31.92
2023-01-11T10:50:36.594Z,31.65
2023-01-11T10:53:12.682Z,29.00
2023-01-11T10:56:02.125Z,31.30
2023-01-11T10:59:22.763Z,27.48
2023-01-11T11:01:59.356Z,26.25
2023-01-11T11:05:11.099Z,30.17
2023-01-11T11:08:14.783Z,27.33
2023-01-11T11:11:04.347Z,31.38
2023-01-11T11:13:43.584Z,31.45
2023-01-11T11:16:22.605Z,31.92
2023-01-11T11:18:58.344Z,33.45
2023-01-11T11:21:37.319Z,31.95
2023-01-11T11:24:16.612Z,27.02
2023-01-11T11:26:49.645Z,32.95
2023-01-11T11:29:23.150Z,43.15
2023-01-11T11:31:51.284Z,32.20
2023-01-11T11:34:20.906Z,30.00
2023-01-11T11:36:50.773Z,36.35
2023-01-11T11:39:28.372Z,32.38
2023-01-11T11:41:58.327Z,33.53
2023-01-11T11:44:28.729Z,33.97
2023-01-11T11:47:05.769Z,26.30
2023-01-11T11:49:38.505Z,34.45
2023-01-11T11:52:08.405Z,29.00
2023-01-11T11:54:41.073Z,24.83
2023-01-11T11:57:20.216Z,24.60
2023-01-11T11:59:50.036Z,27.80
2023-01-11T12:02:28.274Z,23.98
2023-01-11T12:04:57.483Z,21.98
2023-01-11T12:07:33.130Z,39.03
2023-01-11T12:10:11.796Z,32.42
2023-01-11T12:13:00.456Z,30.38
2023-01-11T12:15:34.894Z,33.58
2023-01-11T12:18:36.927Z,28.80
2023-01-11T12:21:22.681Z,30.33
2023-01-11T12:24:13.584Z,39.00
2023-01-11T12:26:48.620Z,30.83
2023-01-11T12:29:25.015Z,23.63
2023-01-11T12:32:10.393Z,33.15
2023-01-11T12:34:52.347Z,27.27
2023-01-11T12:37:30.261Z,33.58
2023-01-11T12:40:33.415Z,27.90
2023-01-11T12:43:06.142Z,29.83
2023-01-11T12:45:59.494Z,29.88
2023-01-11T12:48:35.170Z,31.38
2023-01-11T12:51:08.060Z,21.17
2023-01-11T12:54:11.832Z,29.60
2023-01-11T12:57:05.171Z,37.20
2023-01-11T13:00:00.751Z,30.23
2023-01-11T13:02:42.607Z,36.88
2023-01-11T13:05:31.721Z,26.80
2023-01-11T13:08:01.627Z,32.97
2023-01-11T13:10:34.409Z,28.42
2023-01-11T13:13:12.749Z,24.88
2023-01-11T13:16:07.825Z,24.88
2023-01-11T13:18:45.338Z,23.85
2023-01-11T13:21:29.689Z,23.42
2023-01-11T13:24:08.643Z,22.80
2023-01-11T13:26:41.824Z,14.57
2023-01-11T13:29:36.815Z,18.17
2023-01-11T13:32:13.329Z,23.38
2023-01-11T13:34:51.024Z,17.52
2023-01-11T13:37:34.117Z,18.80
2023-01-11T13:40:10.240Z,21.20
2023-01-11T13:42:41.662Z,20.50
2023-01-11T13:45:48.696Z,22.38
2023-01-11T13:48:34.194Z,22.65
2023-01-11T13:51:23.454Z,27.15
2023-01-11T13:54:08.091Z,19.38
2023-01-11T13:56:41.127Z,23.50
2023-01-11T13:59:25.286Z,24.92
2023-01-11T14:01:58.429Z,23.65
2023-01-11T14:04:50.298Z,21.25
2023-01-11T14:07:29.172Z,24.83
2023-01-11T14:10:26.961Z,19.98
2023-01-11T14:13:05.062Z,24.33
2023-01-11T14:15:40.177Z,22.88
2023-01-11T14:18:28.935Z,34.22
2023-01-11T14:21:23.732Z,26.02
2023-01-11T14:23:53.015Z,20.52
2023-01-11T14:26:19.776Z,18.85
2023-01-11T14:29:01.694Z,27.55
2023-01-11T14:31:50.679Z,17.75
2023-01-11T14:34:20.872Z,24.58
2023-01-11T14:37:20.234Z,22.90
2023-01-11T14:39:47.251Z,23.15
2023-01-11T14:42:35.501Z,23.98
2023-01-11T14:45:17.659Z,22.40
2023-01-11T14:47:51.489Z,32.22
2023-01-11T14:50:45.641Z,26.02
2023-01-11T14:53:21.669Z,20.38
2023-01-11T14:55:49.271Z,16.77
2023-01-11T14:58:30.721Z,22.88
2023-01-11T15:00:57.570Z,20.88
2023-01-11T15:03:42.165Z,22.75
2023-01-11T15:06:16.516Z,24.77
2023-01-11T15:08:46.898Z,20.38
2023-01-11T15:11:34.293Z,21.40
2023-01-11T15:14:15.424Z,18.70
2023-01-11T15:17:10.536Z,20.60
2023-01-11T15:19:40.217Z,23.13
2023-01-11T15:22:07.730Z,16.27
2023-01-11T15:24:42.787Z,19.85
2023-01-11T15:27:25.255Z,20.90
2023-01-11T15:29:57.836Z,23.70
2023-01-11T15:32:28.925Z,14.23
2023-01-11T15:35:16.891Z,16.30
2023-01-11T15:37:52.790Z,15.95
2023-01-11T15:40:26.707Z,14.75
2023-01-11T15:43:14.623Z,13.93
2023-01-11T15:46:17.266Z,17.40
2023-01-11T15:49:22.075Z,20.27
2023-01-11T15:52:08.773Z,17.65
2023-01-11T15:54:53.838Z,25.10
2023-01-11T15:57:33.385Z,20.70
2023-01-11T16:00:30.088Z,18.95
2023-01-11T16:03:15.317Z,27.85
2023-01-11T16:05:50.637Z,32.88
2023-01-11T16:08:29.162Z,21.10
2023-01-11T16:10:58.860Z,22.17
2023-01-11T16:13:31.542Z,29.27
2023-01-11T16:16:17.031Z,20.08
2023-01-11T16:19:00.994Z,20.38
2023-01-11T16:21:32.433Z,25.48
2023-01-11T16:24:01.406Z,31.38
2023-01-11T16:26:28.465Z,23.00
2023-01-11T16:28:58.600Z,25.38
2023-01-11T16:36:57.668Z,30.42
2023-01-11T16:39:34.167Z,22.33
2023-01-11T16:42:05.869Z,23.42
2023-01-11T16:44:40.691Z,18.63
2023-01-11T16:47:13.638Z,25.17
2023-01-11T16:49:43.272Z,29.00
2023-01-11T16:52:28.462Z,22.67
2023-01-11T16:54:57.397Z,23.67
2023-01-11T16:57:35.871Z,27.25
2023-01-11T17:00:15.976Z,25.48
2023-01-11T17:02:47.155Z,25.48
2023-01-11T17:05:23.350Z,22.73
2023-01-11T17:07:50.278Z,19.27
2023-01-11T17:10:29.645Z,14.50
2023-01-11T17:13:38.772Z,15.70
2023-01-11T17:16:11.260Z,24.48
2023-01-11T17:18:42.585Z,24.27
2023-01-11T17:21:28.490Z,29.58
2023-01-11T17:26:41.663Z,17.50
2023-01-11T17:29:09.062Z,22.58
2023-01-11T17:31:37.889Z,27.00
2023-01-11T17:34:20.065Z,22.25
2023-01-11T17:36:48.062Z,25.15
2023-01-11T17:39:35.989Z,26.15
2023-01-11T17:42:23.933Z,26.92
2023-01-11T17:45:11.483Z,28.45
2023-01-11T17:47:53.735Z,37.60
2023-01-11T17:50:23.283Z,22.02
2023-01-11T17:53:00.791Z,27.25
2023-01-11T17:55:28.435Z,26.65
2023-01-11T17:58:19.732Z,30.27
2023-01-11T18:01:18.574Z,34.20
2023-01-11T18:03:59.113Z,47.40
2023-01-11T18:06:34.647Z,31.90
2023-01-11T18:09:05.162Z,29.30
2023-01-11T18:11:41.616Z,30.42
2023-01-11T18:14:24.666Z,29.42
2023-01-11T18:17:23.976Z,30.33
2023-01-11T18:19:51.010Z,32.17
2023-01-11T18:22:28.896Z,30.00
2023-01-11T18:24:58.146Z,35.55
2023-01-11T18:27:28.524Z,34.05
2023-01-11T18:29:57.447Z,39.40
2023-01-11T18:32:25.457Z,30.23
2023-01-11T18:34:54.466Z,31.45
2023-01-11T18:37:22.120Z,42.72
2023-01-11T18:39:50.999Z,27.88
2023-01-11T18:42:21.267Z,38.25
2023-01-11T18:44:49.468Z,35.53
2023-01-11T18:47:19.312Z,37.45
2023-01-11T18:49:46.793Z,35.50
2023-01-11T18:52:14.572Z,42.72
2023-01-11T18:54:42.655Z,41.63
2023-01-11T18:57:10.468Z,40.65
2023-01-11T18:59:37.566Z,47.33
2023-01-11T19:02:16.956Z,40.67
2023-01-11T19:04:46.570Z,32.70
2023-01-11T19:07:14.227Z,38.25
2023-01-11T19:09:41.595Z,40.05
2023-01-11T19:12:08.664Z,33.38
2023-01-11T19:14:35.627Z,35.03
2023-01-11T19:17:04.573Z,39.85
2023-01-11T19:19:33.075Z,37.47
2023-01-11T19:21:59.960Z,38.80
2023-01-11T19:24:26.989Z,33.85
2023-01-11T19:26:53.913Z,38.35
2023-01-11T19:29:24.491Z,30.40
2023-01-11T19:31:52.721Z,27.88
2023-01-11T19:34:20.365Z,27.60
2023-01-11T19:36:50.000Z,33.10
2023-01-11T19:39:17.052Z,30.10
2023-01-11T19:42:00.109Z,29.25
2023-01-11T19:44:29.856Z,27.63
2023-01-11T19:47:10.482Z,29.25
2023-01-11T19:49:40.438Z,30.33
2023-01-11T19:52:13.355Z,33.92
2023-01-11T19:54:42.422Z,26.17
2023-01-11T19:57:23.295Z,26.50
2023-01-11T19:59:50.569Z,35.00
2023-01-11T20:02:20.021Z,30.48
2023-01-11T20:04:48.292Z,28.55
2023-01-11T20:07:16.256Z,31.00
2023-01-11T20:09:50.414Z,29.20
2023-01-11T20:12:17.452Z,22.95
2023-01-11T20:14:46.208Z,33.17
2023-01-11T20:17:14.003Z,24.45
2023-01-11T20:19:41.394Z,26.35
2023-01-11T20:22:16.125Z,18.55
2023-01-11T20:24:43.050Z,14.10
2023-01-11T20:27:10.315Z,22.35
2023-01-11T20:29:43.748Z,19.10
2023-01-11T20:32:34.863Z,17.92
2023-01-11T20:34:59.351Z,14.93
2023-01-11T20:37:26.226Z,12.00
2023-01-11T20:39:59.975Z,13.05
2023-01-11T20:42:26.878Z,12.70
2023-01-11T20:44:53.762Z,7.43
2023-01-11T20:47:20.718Z,4.45
2023-01-11T20:49:47.754Z,8.80
2023-01-11T20:52:14.674Z,10.85
2023-01-11T20:54:41.564Z,13.95
2023-01-11T20:57:12.410Z,13.07
2023-01-11T20:59:39.588Z,8.88
2023-01-11T21:02:07.606Z,13.75
2023-01-11T21:04:35.683Z,15.90
2023-01-11T21:07:02.729Z,15.15
2023-01-11T21:09:29.660Z,12.02
2023-01-11T21:11:56.543Z,17.45
2023-01-11T21:14:23.805Z,11.95
2023-01-11T21:16:50.930Z,17.33
2023-01-11T21:19:17.856Z,14.15
2023-01-11T21:21:45.168Z,17.77
2023-01-11T21:24:13.868Z,24.98
2023-01-11T21:26:42.434Z,17.02
2023-01-11T21:29:10.694Z,18.30
2023-01-11T21:31:38.515Z,16.92
2023-01-11T21:34:05.724Z,19.90
2023-01-11T21:36:32.969Z,20.30
2023-01-11T21:39:02.681Z,17.70
2023-01-11T21:41:50.681Z,18.35
2023-01-11T21:44:19.064Z,18.23
2023-01-11T21:46:46.588Z,19.27
2023-01-11T21:49:14.296Z,16.52
2023-01-11T21:51:41.917Z,17.98
2023-01-11T21:54:12.227Z,18.73
2023-01-11T21:56:39.470Z,16.60
2023-01-11T21:59:06.466Z,18.30
2023-01-11T22:01:33.407Z,13.70
2023-01-11T22:04:07.728Z,21.30
2023-01-11T22:06:39.857Z,23.95
2023-01-11T22:09:08.935Z,26.95
2023-01-11T22:11:35.748Z,27.23
2023-01-11T22:14:03.668Z,23.77
2023-01-11T22:16:31.792Z,27.75
2023-01-11T22:18:59.890Z,21.25
2023-01-11T22:21:27.319Z,33.08
2023-01-11T22:23:56.353Z,36.38
2023-01-11T22:26:24.013Z,36.90
2023-01-11T22:29:12.906Z,48.30
2023-01-11T22:31:49.682Z,34.80
2023-01-11T22:34:18.336Z,47.70
2023-01-11T22:36:45.791Z,64.45
2023-01-11T22:39:14.392Z,51.05
2023-01-11T22:41:41.850Z,58.40
2023-01-11T22:44:09.840Z,63.58
2023-01-11T22:46:37.797Z,76.20
2023-01-11T22:49:08.578Z,65.35
2023-01-11T22:51:35.871Z,81.65
2023-01-11T22:54:03.302Z,68.28
2023-01-11T22:56:30.460Z,68.22
2023-01-11T22:58:57.414Z,59.72
2023-01-11T23:01:28.177Z,64.10
2023-01-11T23:03:56.109Z,65.18
2023-01-11T23:06:32.177Z,66.28
2023-01-11T23:08:59.731Z,63.67
2023-01-11T23:11:48.198Z,70.90
2023-01-11T23:14:17.827Z,60.42
2023-01-11T23:16:46.044Z,60.05
2023-01-11T23:19:15.342Z,71.50
2023-01-11T23:21:44.015Z,50.30
2023-01-11T23:24:12.528Z,62.47
2023-01-11T23:26:39.802Z,57.60
2023-01-11T23:29:06.942Z,58.60
2023-01-11T23:31:35.276Z,55.38
2023-01-11T23:34:04.049Z,60.28
2023-01-11T23:36:34.363Z,63.25
2023-01-11T23:39:01.516Z,78.07
2023-01-11T23:41:47.440Z,58.67
2023-01-11T23:44:16.898Z,64.30
2023-01-11T23:47:02.631Z,57.95
2023-01-11T23:49:31.242Z,60.25
2023-01-11T23:51:59.008Z,56.25
2023-01-11T23:54:30.784Z,56.83
2023-01-11T23:56:59.049Z,59.30
2023-01-11T23:59:26.024Z,59.60
